createdAt,value
2023-01-13T00:04:38.827Z,100.0
2023-01-13T00:09:38.824Z,100.0
2023-01-13T00:14:38.806Z,100.0
2023-01-13T00:19:38.804Z,100.0
2023-01-13T00:24:38.808Z,100.0
2023-01-13T00:29:38.819Z,100.0
2023-01-13T00:34:38.816Z,99.8
2023-01-13T00:39:38.834Z,99.8
2023-01-13T00:44:38.823Z,99.6
2023-01-13T00:49:38.827Z,99.0
2023-01-13T00:54:38.826Z,98.7
2023-01-13T00:59:38.836Z,97.8
2023-01-13T01:04:38.831Z,97.5
2023-01-13T01:09:38.859Z,97.6
2023-01-13T01:14:38.839Z,98.1
2023-01-13T01:19:38.871Z,98.1
2023-01-13T01:24:38.848Z,98.3
2023-01-13T01:29:38.871Z,98.7
2023-01-13T01:34:38.848Z,98.7
2023-01-13T01:39:38.876Z,99.0
2023-01-13T01:44:38.860Z,99.3
2023-01-13T01:49:38.868Z,99.3
2023-01-13T01:54:38.866Z,99.1
2023-01-13T01:59:38.866Z,98.5
2023-01-13T02:04:38.869Z,98.3
2023-01-13T02:09:38.887Z,98.3
2023-01-13T02:14:38.888Z,98.6
2023-01-13T02:19:38.893Z,98.6
2023-01-13T02:24:38.887Z,98.2
2023-01-13T02:29:38.896Z,98.1
2023-01-13T02:34:38.886Z,97.8
2023-01-13T02:39:38.923Z,97.0
2023-01-13T02:44:38.884Z,96.9
2023-01-13T02:49:38.909Z,96.9
2023-01-13T02:54:38.902Z,96.6
2023-01-13T02:59:38.888Z,96.1
2023-01-13T03:04:38.874Z,96.0
2023-01-13T03:09:38.905Z,95.8
2023-01-13T03:14:38.882Z,95.5
2023-01-13T03:19:38.880Z,94.8
2023-01-13T03:24:38.896Z,94.6
2023-01-13T03:29:38.903Z,94.7
2023-01-13T03:34:38.896Z,94.4
2023-01-13T03:39:38.918Z,93.9
2023-01-13T03:44:38.912Z,93.4
2023-01-13T03:49:38.907Z,93.3
2023-01-13T03:54:38.904Z,92.6
2023-01-13T03:59:38.927Z,93.4
2023-01-13T04:04:38.926Z,92.8
2023-01-13T04:06:02.442Z,92.5
2023-01-13T04:09:38.937Z,92.5
2023-01-13T04:14:38.909Z,92.4
2023-01-13T04:19:38.924Z,92.3
2023-01-13T04:24:38.919Z,93.0
2023-01-13T04:29:38.937Z,92.8
2023-01-13T04:34:38.931Z,93.2
2023-01-13T04:39:38.943Z,93.3
2023-01-13T04:44:38.937Z,93.3
2023-01-13T04:49:38.946Z,93.2
2023-01-13T04:54:38.943Z,93.6
2023-01-13T04:59:38.959Z,93.8
2023-01-13T05:04:39.037Z,93.5
2023-01-13T05:09:38.966Z,93.9
2023-01-13T05:14:38.950Z,93.3
2023-01-13T05:19:38.955Z,92.8
2023-01-13T05:24:38.954Z,92.1
2023-01-13T05:29:38.977Z,92.4
2023-01-13T05:34:38.969Z,92.5
2023-01-13T05:39:38.993Z,91.3
2023-01-13T05:44:38.977Z,91.3
2023-01-13T05:49:41.476Z,91.2
2023-01-13T05:54:38.977Z,91.0
2023-01-13T05:59:39.001Z,91.6
2023-01-13T06:04:39.064Z,91.4
2023-01-13T06:09:39.010Z,92.0
2023-01-13T06:14:38.977Z,92.0
2023-01-13T06:19:38.997Z,91.6
2023-01-13T06:24:39.006Z,91.0
2023-01-13T06:29:39.001Z,91.1
2023-01-13T06:34:39.006Z,91.0
2023-01-13T06:39:39.029Z,91.0
2023-01-13T06:44:39.006Z,90.9
2023-01-13T06:49:39.016Z,90.7
2023-01-13T06:54:39.008Z,90.6
2023-01-13T06:59:39.014Z,90.4
2023-01-13T07:04:39.025Z,90.7
2023-01-13T07:09:39.049Z,90.3
2023-01-13T07:14:39.024Z,89.9
2023-01-13T07:19:39.028Z,90.3
2023-01-13T07:24:39.045Z,90.2
2023-01-13T07:29:39.039Z,89.9
2023-01-13T07:34:39.027Z,90.2
2023-01-13T07:39:39.061Z,90.1
2023-01-13T07:44:39.032Z,90.0
2023-01-13T07:49:39.044Z,90.0
2023-01-13T07:54:40.730Z,89.7
2023-01-13T07:59:39.063Z,89.7
2023-01-13T08:04:39.054Z,89.5
2023-01-13T08:09:39.067Z,89.4
2023-01-13T08:14:39.053Z,89.0
2023-01-13T08:19:39.063Z,89.3
2023-01-13T08:24:39.061Z,89.4
2023-01-13T08:29:39.075Z,89.4
2023-01-13T08:34:39.069Z,88.6
2023-01-13T08:39:39.104Z,88.5
2023-01-13T08:44:39.070Z,87.7
2023-01-13T08:49:39.072Z,87.6
2023-01-13T08:54:39.085Z,87.9
2023-01-13T08:59:39.098Z,88.7
2023-01-13T09:04:39.182Z,89.8
2023-01-13T09:09:39.098Z,90.4
2023-01-13T09:14:39.093Z,91.3
2023-01-13T09:19:39.091Z,92.3
2023-01-13T09:24:39.099Z,93.3
2023-01-13T09:29:39.115Z,94.3
2023-01-13T09:34:39.113Z,95.3
2023-01-13T09:39:39.118Z,95.6
2023-01-13T09:44:39.114Z,96.2
2023-01-13T09:49:39.122Z,96.5
2023-01-13T09:54:39.115Z,96.4
2023-01-13T09:59:39.126Z,96.7
2023-01-13T10:04:39.137Z,96.4
2023-01-13T10:09:39.157Z,96.3
2023-01-13T10:14:39.129Z,96.3
2023-01-13T10:19:39.131Z,96.6
2023-01-13T10:24:39.143Z,96.6
2023-01-13T10:29:39.139Z,97.0
2023-01-13T10:34:39.130Z,96.9
2023-01-13T10:39:39.148Z,97.0
2023-01-13T10:44:39.159Z,97.2
2023-01-13T10:49:39.139Z,97.4
2023-01-13T10:54:39.146Z,98.0
2023-01-13T10:59:39.180Z,98.7
2023-01-13T11:04:39.212Z,99.2
2023-01-13T11:09:39.176Z,99.4
2023-01-13T11:14:39.183Z,99.5
2023-01-13T11:19:39.174Z,99.3
2023-01-13T11:24:39.170Z,99.3
2023-01-13T11:29:39.190Z,98.6
2023-01-13T11:34:39.174Z,98.4
2023-01-13T11:39:39.193Z,97.9
2023-01-13T11:44:39.177Z,97.4
2023-01-13T11:49:39.176Z,97.0
2023-01-13T11:54:39.183Z,96.7
2023-01-13T11:59:39.195Z,96.2
2023-01-13T12:04:39.192Z,95.8
2023-01-13T12:09:39.216Z,95.2
2023-01-13T12:14:39.193Z,94.9
2023-01-13T12:19:39.197Z,94.4
2023-01-13T12:24:39.199Z,93.7
2023-01-13T12:29:39.222Z,93.3
2023-01-13T12:34:39.220Z,93.0
2023-01-13T12:39:39.221Z,93.1
2023-01-13T12:44:39.215Z,92.7
2023-01-13T12:49:39.221Z,92.2
2023-01-13T12:54:39.214Z,90.9
2023-01-13T12:59:39.235Z,90.7
2023-01-13T13:04:39.217Z,90.0
2023-01-13T13:09:39.264Z,89.9
2023-01-13T13:14:39.321Z,89.2
2023-01-13T13:19:39.231Z,88.8
2023-01-13T13:24:39.232Z,88.0
2023-01-13T13:29:39.252Z,87.5
2023-01-13T13:34:39.235Z,86.7
2023-01-13T13:39:40.031Z,86.9
2023-01-13T13:44:39.240Z,85.3
2023-01-13T13:49:39.248Z,85.6
2023-01-13T13:54:39.249Z,84.7
2023-01-13T13:59:39.260Z,83.7
2023-01-13T14:04:39.308Z,83.9
2023-01-13T14:09:39.242Z,83.9
2023-01-13T14:14:39.213Z,83.4
2023-01-13T14:19:39.218Z,83.4
2023-01-13T14:24:39.207Z,83.0
2023-01-13T14:29:39.214Z,82.8
2023-01-13T14:34:39.213Z,83.2
2023-01-13T14:39:39.224Z,82.4
2023-01-13T14:44:39.228Z,82.2
2023-01-13T14:49:39.201Z,82.5
2023-01-13T14:54:39.210Z,82.3
2023-01-13T14:59:39.217Z,82.4
2023-01-13T15:04:39.213Z,82.1
2023-01-13T15:09:39.255Z,82.2
2023-01-13T15:14:39.216Z,82.4
2023-01-13T15:19:39.217Z,82.8
2023-01-13T15:24:39.225Z,83.4
2023-01-13T15:29:39.392Z,83.8
2023-01-13T15:34:39.222Z,83.8
2023-01-13T15:39:39.274Z,84.4
2023-01-13T15:44:39.255Z,84.6
2023-01-13T15:49:39.229Z,84.6
2023-01-13T15:54:39.237Z,84.8
2023-01-13T15:59:39.242Z,84.2
2023-01-13T16:04:39.255Z,83.7
2023-01-13T16:09:39.486Z,83.7
2023-01-13T16:14:39.252Z,83.3
2023-01-13T16:19:39.267Z,83.3
2023-01-13T16:24:39.277Z,83.4
2023-01-13T16:29:39.302Z,82.9
2023-01-13T16:34:39.300Z,83.1
2023-01-13T16:39:39.334Z,83.3
2023-01-13T16:44:39.360Z,83.2
2023-01-13T16:49:39.338Z,83.9
2023-01-13T16:54:39.343Z,84.1
2023-01-13T16:59:39.348Z,84.2
2023-01-13T17:04:39.357Z,84.0
2023-01-13T17:09:39.379Z,84.7
2023-01-13T17:14:39.362Z,84.8
2023-01-13T17:19:39.366Z,85.3
2023-01-13T17:24:39.375Z,85.4
2023-01-13T17:29:39.388Z,85.3
2023-01-13T17:34:39.390Z,85.5
2023-01-13T17:39:39.395Z,85.4
2023-01-13T17:44:39.391Z,86.2
2023-01-13T17:49:39.380Z,86.2
2023-01-13T17:54:39.380Z,87.1
2023-01-13T17:59:39.390Z,87.8
2023-01-13T18:04:39.379Z,88.2
2023-01-13T18:09:39.411Z,88.3
2023-01-13T18:14:39.399Z,88.3
2023-01-13T18:19:39.388Z,88.6
2023-01-13T18:24:39.394Z,88.5
2023-01-13T18:29:39.398Z,88.3
2023-01-13T18:34:39.432Z,88.6
2023-01-13T18:39:39.431Z,88.6
2023-01-13T18:44:39.407Z,88.8
2023-01-13T18:49:39.409Z,89.2
2023-01-13T18:54:39.410Z,89.3
2023-01-13T18:59:39.422Z,89.6
2023-01-13T19:04:39.415Z,89.6
2023-01-13T19:09:39.453Z,89.8
2023-01-13T19:14:39.421Z,90.6
2023-01-13T19:19:39.414Z,91.0
2023-01-13T19:24:39.429Z,91.7
2023-01-13T19:29:45.708Z,92.0
2023-01-13T19:34:39.447Z,92.2
2023-01-13T19:39:39.453Z,92.3
2023-01-13T19:44:39.452Z,92.4
2023-01-13T19:49:39.445Z,92.4
2023-01-13T19:54:39.455Z,92.6
2023-01-13T19:59:39.529Z,92.8
2023-01-13T20:04:39.461Z,92.9
2023-01-13T20:09:39.507Z,92.8
2023-01-13T20:14:39.449Z,93.1
2023-01-13T20:19:39.465Z,92.7
2023-01-13T20:24:39.483Z,92.6
2023-01-13T20:29:39.476Z,93.0
2023-01-13T20:34:39.476Z,92.7
2023-01-13T20:39:39.489Z,92.7
2023-01-13T20:44:39.487Z,92.8
2023-01-13T20:49:39.482Z,92.4
2023-01-13T20:54:39.511Z,92.2
2023-01-13T20:59:39.526Z,92.1
2023-01-13T21:04:39.488Z,92.1
2023-01-13T21:09:39.527Z,92.5
2023-01-13T21:14:39.491Z,92.3
2023-01-13T21:19:39.488Z,92.1
2023-01-13T21:24:39.499Z,92.1
2023-01-13T21:29:39.506Z,92.3
2023-01-13T21:34:39.496Z,92.4
2023-01-13T21:39:39.521Z,92.6
2023-01-13T21:44:39.521Z,92.8
2023-01-13T21:49:39.509Z,92.9
2023-01-13T21:54:39.517Z,92.6
2023-01-13T21:59:39.934Z,92.2
2023-01-13T22:04:39.524Z,91.9
2023-01-13T22:09:39.533Z,92.0
2023-01-13T22:14:39.536Z,91.9
2023-01-13T22:19:39.526Z,91.9
2023-01-13T22:24:39.526Z,91.7
2023-01-13T22:29:39.545Z,91.4
2023-01-13T22:34:39.539Z,91.1
2023-01-13T22:39:39.572Z,91.0
2023-01-13T22:44:39.549Z,90.6
2023-01-13T22:49:39.554Z,90.3
2023-01-13T22:54:39.551Z,90.1
2023-01-13T22:59:39.561Z,90.2
2023-01-13T23:04:39.593Z,90.2
2023-01-13T23:09:39.578Z,90.5
2023-01-13T23:14:39.571Z,90.8
2023-01-13T23:19:39.559Z,91.0
2023-01-13T23:24:39.575Z,91.0
2023-01-13T23:29:39.614Z,91.4
2023-01-13T23:34:39.592Z,91.3
2023-01-13T23:39:39.600Z,90.9
2023-01-13T23:44:39.582Z,91.0
2023-01-13T23:49:39.584Z,90.4
2023-01-13T23:54:39.604Z,90.3
2023-01-13T23:59:39.655Z,90.3
